Time;durP1;ratioP1;P1;durP2;ratioP2;P2;SDS_P1;SDS_P2;PMS_P1;PMS_P2;Temp;Humidity;BMP_temperature;BMP_pressure;BME280_temperature;BME280_humidity;BME280_pressure;Samples;Min_cycle;Max_cycle;Signal;HPM_P1;HPM_P2
2024/02/06 00:01:28;;;;;;;12.07;2.20;;;;;;;5.58;57.10;100782.06;5081293;28;20050;-70
2024/02/06 00:03:54;;;;;;;14.32;1.95;;;;;;;5.50;57.06;100762.38;5048564;28;20028;-69
2024/02/06 00:06:20;;;;;;;9.52;2.20;;;;;;;5.24;58.00;100761.16;5079457;28;20028;-70
2024/02/06 00:08:46;;;;;;;6.47;2.53;;;;;;;5.60;57.35;100784.63;5069156;28;20020;-70
2024/02/06 00:11:13;;;;;;;13.93;2.25;;;;;;;5.48;57.98;100775.38;5052795;28;20059;-69
2024/02/06 00:13:39;;;;;;;9.73;2.75;;;;;;;5.38;57.43;100755.72;5004846;28;20028;-69
2024/02/06 00:16:12;;;;;;;9.10;2.20;;;;;;;5.55;57.64;100761.41;5000981;28;20043;-71
2024/02/06 00:18:37;;;;;;;14.43;2.05;;;;;;;5.18;58.26;100771.66;5005668;28;20035;-69
2024/02/06 00:21:03;;;;;;;14.43;1.75;;;;;;;5.37;58.20;100757.44;5015575;28;20658;-72
2024/02/06 00:23:28;;;;;;;11.52;2.08;;;;;;;5.51;58.12;100759.75;5062899;28;20039;-66
2024/02/06 00:25:55;;;;;;;14.93;2.70;;;;;;;5.11;58.82;100762.28;5044122;28;20068;-66
2024/02/06 00:28:24;;;;;;;14.80;1.77;;;;;;;5.37;58.06;100757.44;5078601;28;20473;-65
2024/02/06 00:30:49;;;;;;;9.57;2.35;;;;;;;5.44;58.05;100761.63;5034040;28;20282;-64
2024/02/06 00:33:16;;;;;;;9.65;2.45;;;;;;;5.18;58.36;100759.53;5073884;28;20834;-67
2024/02/06 00:36:09;;;;;;;12.07;1.85;;;;;;;5.44;57.88;100753.00;5056730;28;20053;-68
2024/02/06 00:38:35;;;;;;;11.02;2.45;;;;;;;5.51;57.94;100745.94;5075399;28;20375;-67
2024/02/06 00:41:00;;;;;;;13.45;1.70;;;;;;;5.57;57.75;100738.91;5065327;28;20047;-66
2024/02/06 00:43:28;;;;;;;10.15;1.95;;;;;;;5.61;57.57;100731.88;5057933;28;20031;-67
2024/02/06 00:45:53;;;;;;;14.07;1.95;;;;;;;5.03;59.11;100718.38;5065829;28;20039;-70
2024/02/06 00:48:19;;;;;;;13.20;2.28;;;;;;;5.06;59.15;100726.09;5076793;28;20627;-66
2024/02/06 00:50:45;;;;;;;6.95;1.73;;;;;;;5.21;58.52;100709.38;5072642;28;20031;-66
2024/02/06 00:53:12;;;;;;;12.52;1.40;;;;;;;5.36;58.25;100734.16;5034944;28;20040;-68
2024/02/06 00:55:37;;;;;;;7.90;1.52;;;;;;;5.43;58.04;100715.81;5057822;28;20043;-71
2024/02/06 00:58:03;;;;;;;9.90;2.72;;;;;;;5.25;57.54;100717.06;5065542;28;20035;-72
2024/02/06 01:00:28;;;;;;;6.53;1.60;;;;;;;5.21;57.46;100711.97;5076705;28;20036;-70
2024/02/06 01:02:54;;;;;;;10.00;1.67;;;;;;;5.52;57.50;100719.97;5068525;28;20039;-71
2024/02/06 01:05:19;;;;;;;5.03;1.85;;;;;;;5.31;58.03;100720.44;5053665;28;20073;-71
2024/02/06 01:07:46;;;;;;;11.85;1.90;;;;;;;5.75;56.94;100695.28;5041223;28;20730;-72
2024/02/06 01:10:12;;;;;;;11.32;1.30;;;;;;;5.62;57.27;100698.16;5047148;28;20046;-66
2024/02/06 01:12:37;;;;;;;12.05;2.13;;;;;;;5.48;57.38;100694.16;5077010;28;20275;-65
2024/02/06 01:15:03;;;;;;;8.80;2.53;;;;;;;5.59;57.41;100684.41;5062888;28;20067;-68
2024/02/06 01:17:29;;;;;;;11.10;2.08;;;;;;;5.40;57.67;100681.38;5076720;28;20035;-66
2024/02/06 01:19:54;;;;;;;4.72;1.77;;;;;;;5.72;57.17;100684.97;5066877;28;20433;-68
2024/02/06 01:22:20;;;;;;;11.85;2.03;;;;;;;5.78;56.38;100684.84;5071660;28;20042;-66
2024/02/06 01:24:45;;;;;;;7.78;1.80;;;;;;;5.59;57.34;100685.28;5073071;28;20040;-68
2024/02/06 01:27:11;;;;;;;18.05;2.00;;;;;;;5.40;57.71;100696.91;5049958;28;20134;-70
2024/02/06 01:29:37;;;;;;;8.95;1.52;;;;;;;5.67;56.63;100675.56;5075523;28;20576;-69
2024/02/06 01:32:03;;;;;;;13.82;2.08;;;;;;;5.29;57.79;100676.41;5062018;28;20052;-68
2024/02/06 01:34:29;;;;;;;7.20;1.63;;;;;;;5.44;57.42;100675.22;5073875;28;20027;-70
2024/02/06 01:36:54;;;;;;;8.02;2.42;;;;;;;5.70;56.63;100674.63;5069221;28;20512;-68
2024/02/06 01:39:20;;;;;;;8.18;1.63;;;;;;;5.61;57.34;100672.25;5048053;28;20128;-71
2024/02/06 01:41:45;;;;;;;5.97;1.67;;;;;;;6.01;56.41;100661.78;5075125;28;20031;-69
2024/02/06 01:44:11;;;;;;;6.72;1.63;;;;;;;5.08;58.49;100661.28;5063719;28;20046;-69
2024/02/06 01:46:36;;;;;;;13.13;2.25;;;;;;;5.31;57.78;100664.28;5074146;28;20041;-67
2024/02/06 01:49:05;;;;;;;7.55;1.75;;;;;;;5.20;58.26;100682.63;5063481;28;20035;-69
2024/02/06 01:51:34;;;;;;;12.23;2.05;;;;;;;5.71;57.11;100657.34;5075738;28;20023;-70
2024/02/06 01:54:00;;;;;;;7.65;1.50;;;;;;;5.53;57.73;100648.25;5044106;28;20051;-67
2024/02/06 01:56:26;;;;;;;8.02;2.10;;;;;;;5.61;57.31;100652.38;5073416;28;20031;-68
2024/02/06 01:58:53;;;;;;;3.45;1.35;;;;;;;5.38;58.01;100649.44;5073134;28;20028;-70
2024/02/06 02:01:19;;;;;;;14.82;3.30;;;;;;;5.60;56.91;100665.38;5049007;28;20068;-67
2024/02/06 02:03:45;;;;;;;7.45;1.40;;;;;;;5.11;59.05;100656.91;5026036;28;20767;-68
2024/02/06 02:06:11;;;;;;;11.02;1.95;;;;;;;5.68;57.47;100642.69;5041579;28;20551;-69
2024/02/06 02:08:38;;;;;;;12.13;2.70;;;;;;;5.38;58.19;100645.09;5074503;28;20111;-68
2024/02/06 02:11:03;;;;;;;13.88;1.88;;;;;;;5.16;58.19;100644.72;5050809;28;20043;-70
2024/02/06 02:13:29;;;;;;;10.45;1.88;;;;;;;5.67;57.74;100643.59;5071027;28;20033;-68
2024/02/06 02:15:56;;;;;;;10.43;3.13;;;;;;;5.62;57.08;100641.13;5042160;28;20052;-67
2024/02/06 02:18:21;;;;;;;6.57;2.03;;;;;;;5.21;58.57;100635.13;5045334;28;20120;-69
2024/02/06 02:20:47;;;;;;;7.38;2.08;;;;;;;5.12;58.64;100629.25;5073656;28;20035;-69
2024/02/06 02:23:13;;;;;;;15.90;2.67;;;;;;;5.67;57.81;100631.47;5063109;28;20170;-69
2024/02/06 02:25:38;;;;;;;25.70;2.55;;;;;;;5.42;58.30;100622.56;5058285;28;20058;-69
2024/02/06 02:28:05;;;;;;;7.43;1.52;;;;;;;5.28;58.13;100612.53;5054253;28;20051;-68
2024/02/06 02:30:33;;;;;;;6.93;2.35;;;;;;;5.16;58.74;100612.78;5050644;28;20965;-69
2024/02/06 02:32:58;;;;;;;19.92;2.22;;;;;;;5.48;58.10;100613.78;5072084;28;20144;-69
2024/02/06 02:35:31;;;;;;;3.58;1.30;;;;;;;5.50;58.09;100607.69;5032721;28;20775;-70
2024/02/06 02:37:57;;;;;;;10.10;2.00;;;;;;;5.44;58.36;100597.47;5063792;28;21292;-68
2024/02/06 02:40:22;;;;;;;7.65;1.65;;;;;;;5.53;57.63;100615.41;5021716;28;20058;-70
2024/02/06 02:42:48;;;;;;;11.43;1.98;;;;;;;5.25;58.41;100595.28;5077128;28;20513;-70
2024/02/06 02:45:14;;;;;;;13.77;2.33;;;;;;;5.48;57.90;100601.69;5063734;28;20101;-72
2024/02/06 02:47:39;;;;;;;12.35;2.13;;;;;;;5.59;57.34;100591.94;5056177;28;20039;-67
2024/02/06 02:50:05;;;;;;;11.52;2.30;;;;;;;5.60;57.89;100578.06;5045470;28;20043;-66
2024/02/06 02:52:31;;;;;;;10.27;2.28;;;;;;;5.87;56.71;100578.28;5074782;28;20102;-66
2024/02/06 02:54:56;;;;;;;6.13;1.63;;;;;;;5.20;58.58;100593.69;5073691;28;20079;-67
2024/02/06 02:57:21;;;;;;;10.55;1.77;;;;;;;5.57;57.53;100588.53;5064440;28;20154;-66
2024/02/06 02:59:47;;;;;;;19.17;2.40;;;;;;;5.64;57.69;100590.06;5075353;28;20067;-65
2024/02/06 03:02:12;;;;;;;9.50;1.58;;;;;;;5.69;57.39;100591.72;5065400;28;20036;-66
2024/02/06 03:04:38;;;;;;;5.30;1.40;;;;;;;5.59;57.63;100580.69;5068107;28;20040;-66
2024/02/06 03:07:04;;;;;;;8.23;1.55;;;;;;;5.59;57.81;100580.69;5026581;28;20051;-65
2024/02/06 03:09:30;;;;;;;16.30;2.17;;;;;;;5.93;56.91;100598.88;5040024;28;20036;-66
2024/02/06 03:11:55;;;;;;;10.43;1.35;;;;;;;5.53;58.06;100576.50;5059821;28;20656;-66
2024/02/06 03:14:21;;;;;;;8.52;1.30;;;;;;;5.50;57.71;100550.66;5052773;28;20050;-68
2024/02/06 03:16:47;;;;;;;11.77;2.65;;;;;;;5.78;57.28;100569.00;5053757;28;20032;-66
2024/02/06 03:19:12;;;;;;;11.07;2.15;;;;;;;5.96;56.92;100570.25;5045537;28;20477;-67
2024/02/06 03:21:38;;;;;;;7.93;2.13;;;;;;;5.85;57.06;100546.34;5055552;28;20160;-66
2024/02/06 03:24:03;;;;;;;9.35;1.63;;;;;;;6.07;56.28;100570.84;5058032;28;21257;-71
2024/02/06 03:26:29;;;;;;;10.32;2.00;;;;;;;5.86;57.07;100569.66;5044808;28;20841;-71
2024/02/06 03:28:55;;;;;;;7.45;2.22;;;;;;;5.25;58.33;100556.41;5003938;28;20058;-70
2024/02/06 03:31:20;;;;;;;13.82;2.15;;;;;;;5.16;58.47;100546.25;5030026;28;20687;-70
2024/02/06 03:33:46;;;;;;;4.38;1.67;;;;;;;5.81;57.43;100544.72;5006746;28;20227;-73
2024/02/06 03:36:11;;;;;;;11.57;2.65;;;;;;;6.02;56.97;100548.50;4980405;28;20758;-72
2024/02/06 03:38:37;;;;;;;10.20;2.08;;;;;;;5.72;57.05;100550.97;5039406;28;20039;-72
2024/02/06 03:41:02;;;;;;;11.38;1.60;;;;;;;5.56;58.41;100534.94;5054165;28;20043;-72
2024/02/06 03:43:28;;;;;;;14.07;2.25;;;;;;;5.65;58.21;100545.09;5071312;28;20579;-72
2024/02/06 03:45:53;;;;;;;15.68;2.22;;;;;;;5.32;58.98;100531.19;5056242;28;20524;-75
2024/02/06 03:48:19;;;;;;;15.40;3.30;;;;;;;5.57;58.66;100525.41;5066318;28;20032;-71
2024/02/06 03:50:45;;;;;;;13.32;1.83;;;;;;;5.91;57.64;100540.16;5039624;28;20093;-71
2024/02/06 03:53:11;;;;;;;11.25;1.75;;;;;;;5.28;59.28;100533.91;5065576;28;20089;-72
2024/02/06 03:55:36;;;;;;;13.13;1.88;;;;;;;5.43;58.99;100538.72;5071650;28;20040;-73
2024/02/06 03:58:03;;;;;;;19.23;3.47;;;;;;;5.43;58.78;100528.34;5056866;28;20058;-72
2024/02/06 04:00:29;;;;;;;17.02;2.90;;;;;;;5.76;57.86;100531.03;5059465;28;20044;-72
2024/02/06 04:02:55;;;;;;;13.95;1.83;;;;;;;5.44;58.75;100536.09;5071247;28;20028;-72
2024/02/06 04:05:20;;;;;;;14.00;2.78;;;;;;;5.60;58.51;100541.78;5034811;28;20112;-72
2024/02/06 04:07:46;;;;;;;26.25;2.65;;;;;;;5.54;58.94;100533.28;5043446;28;20035;-72
2024/02/06 04:10:12;;;;;;;15.70;3.20;;;;;;;5.99;57.93;100527.81;5067671;28;20541;-71
2024/02/06 04:12:38;;;;;;;13.18;2.55;;;;;;;5.61;59.24;100527.06;5058139;28;20120;-72
2024/02/06 04:15:04;;;;;;;12.45;2.58;;;;;;;5.68;58.53;100523.41;5056272;28;20126;-72
2024/02/06 04:17:29;;;;;;;15.10;2.20;;;;;;;5.50;59.19;100509.16;5064775;28;20051;-72
2024/02/06 04:19:55;;;;;;;18.48;2.70;;;;;;;5.67;58.32;100521.72;5052535;28;20039;-71
2024/02/06 04:22:20;;;;;;;17.90;3.85;;;;;;;5.73;58.11;100520.72;5066638;28;20114;-73
2024/02/06 04:24:46;;;;;;;6.90;2.03;;;;;;;5.60;58.73;100504.63;5057430;28;20099;-72
2024/02/06 04:27:11;;;;;;;14.30;2.60;;;;;;;5.88;57.84;100515.13;5045489;28;20117;-67
2024/02/06 04:29:37;;;;;;;11.57;2.88;;;;;;;6.15;57.13;100502.31;5042657;28;20393;-68
2024/02/06 04:32:03;;;;;;;12.45;2.75;;;;;;;5.82;58.05;100505.78;5052838;28;20118;-68
2024/02/06 04:34:28;;;;;;;18.25;3.20;;;;;;;5.75;58.28;100493.00;5060711;28;20513;-68
2024/02/06 04:36:54;;;;;;;11.20;2.65;;;;;;;5.19;59.79;100502.16;5076531;28;20039;-69
2024/02/06 04:39:19;;;;;;;13.02;1.95;;;;;;;5.67;58.73;100494.03;5062048;28;20052;-69
2024/02/06 04:41:46;;;;;;;27.55;2.90;;;;;;;5.35;59.24;100499.22;5075770;28;20038;-72
2024/02/06 04:44:12;;;;;;;10.95;2.22;;;;;;;5.72;58.59;100503.44;5045886;28;20043;-71
2024/02/06 04:46:38;;;;;;;12.57;2.20;;;;;;;5.65;58.97;100502.75;5076987;28;20086;-72
2024/02/06 04:49:03;;;;;;;17.63;3.10;;;;;;;5.74;58.37;100494.75;5072492;28;20027;-69
2024/02/06 04:51:29;;;;;;;12.90;2.60;;;;;;;6.01;57.37;100482.78;5044948;28;20287;-69
2024/02/06 04:53:55;;;;;;;11.52;1.85;;;;;;;5.73;58.43;100474.06;5042430;28;20035;-72
2024/02/06 04:56:25;;;;;;;10.82;2.33;;;;;;;5.71;58.26;100496.59;5009358;28;20336;-72
2024/02/06 04:58:51;;;;;;;15.98;2.85;;;;;;;5.42;59.21;100477.41;5003835;28;20199;-70
2024/02/06 05:01:17;;;;;;;10.98;2.83;;;;;;;5.53;58.87;100483.19;4994309;28;20039;-72
2024/02/06 05:03:44;;;;;;;15.02;1.95;;;;;;;5.70;58.66;100474.13;5035528;28;20031;-72
2024/02/06 05:06:12;;;;;;;21.67;3.10;;;;;;;5.51;59.04;100466.81;5014297;28;20115;-70
2024/02/06 05:08:40;;;;;;;10.52;1.85;;;;;;;5.37;59.43;100471.47;5068976;28;20024;-70
2024/02/06 05:11:06;;;;;;;14.57;2.25;;;;;;;5.93;57.74;100484.75;5072955;28;20407;-72
2024/02/06 05:13:31;;;;;;;6.30;1.30;;;;;;;5.96;57.83;100460.47;5034560;28;20125;-70
2024/02/06 05:15:58;;;;;;;18.63;3.15;;;;;;;5.55;58.53;100452.06;5057665;28;20874;-70
2024/02/06 05:18:23;;;;;;;13.30;1.95;;;;;;;5.58;58.66;100455.41;5043945;28;20038;-70
2024/02/06 05:20:49;;;;;;;12.85;2.35;;;;;;;5.58;58.95;100450.22;5074523;28;20035;-72
2024/02/06 05:23:17;;;;;;;10.05;2.05;;;;;;;5.98;57.50;100461.28;5037313;28;20055;-72
2024/02/06 05:25:43;;;;;;;16.70;2.35;;;;;;;5.92;57.78;100448.47;5070668;28;20126;-71
2024/02/06 05:28:09;;;;;;;10.75;1.75;;;;;;;5.88;57.99;100452.88;5071695;28;20024;-70
2024/02/06 05:30:36;;;;;;;7.97;1.88;;;;;;;5.42;59.20;100428.19;5061139;28;21563;-71
2024/02/06 05:33:02;;;;;;;13.13;1.55;;;;;;;5.69;58.19;100420.56;5019964;28;20035;-68
2024/02/06 05:35:28;;;;;;;20.45;2.15;;;;;;;5.76;58.01;100437.66;5048275;28;20040;-70
2024/02/06 05:37:57;;;;;;;9.82;1.50;;;;;;;5.77;58.36;100435.03;5074993;28;20115;-71
2024/02/06 05:40:23;;;;;;;8.30;2.45;;;;;;;6.05;57.60;100423.88;5044147;28;20047;-69
2024/02/06 05:42:48;;;;;;;18.13;1.27;;;;;;;5.78;58.27;100425.50;5075394;28;20100;-68
2024/02/06 05:45:14;;;;;;;10.00;1.20;;;;;;;5.84;57.67;100412.38;5034722;28;20044;-68
2024/02/06 05:47:40;;;;;;;19.63;3.08;;;;;;;5.78;58.05;100394.38;5052672;28;20231;-71
2024/02/06 05:50:06;;;;;;;16.02;2.60;;;;;;;5.95;57.69;100399.97;5057579;28;20391;-70
2024/02/06 05:52:31;;;;;;;11.90;2.45;;;;;;;5.84;57.93;100407.19;5064590;28;20088;-70
2024/02/06 05:54:57;;;;;;;11.80;1.30;;;;;;;5.95;58.17;100407.75;5057416;28;20344;-70
2024/02/06 05:57:22;;;;;;;14.45;1.25;;;;;;;5.92;57.82;100405.22;5064583;28;20031;-68
2024/02/06 05:59:48;;;;;;;16.60;1.60;;;;;;;6.27;56.80;100409.41;5047870;28;20438;-74
2024/02/06 06:02:13;;;;;;;16.02;2.42;;;;;;;5.76;58.13;100401.34;5060409;28;20042;-70
2024/02/06 06:04:39;;;;;;;12.95;1.30;;;;;;;5.79;58.07;100394.34;5061803;28;20051;-74
2024/02/06 06:07:05;;;;;;;8.80;2.45;;;;;;;5.86;57.91;100401.06;5073367;28;20175;-74
2024/02/06 06:09:31;;;;;;;5.38;1.77;;;;;;;5.76;58.16;100406.53;5042068;28;20610;-74
2024/02/06 06:11:56;;;;;;;15.43;2.47;;;;;;;5.89;58.31;100389.75;5044142;28;20044;-68
2024/02/06 06:14:22;;;;;;;14.95;2.33;;;;;;;6.14;57.46;100395.06;5029612;28;20089;-68
2024/02/06 06:16:47;;;;;;;18.10;2.05;;;;;;;5.75;58.84;100394.44;5051748;28;20037;-69
2024/02/06 06:19:13;;;;;;;7.38;2.33;;;;;;;5.81;58.21;100404.66;5073055;28;20035;-70
2024/02/06 06:21:39;;;;;;;9.80;1.73;;;;;;;5.65;59.14;100379.16;5057994;28;20133;-70
2024/02/06 06:24:05;;;;;;;15.23;1.83;;;;;;;6.36;57.32;100382.34;5046200;28;20268;-68
2024/02/06 06:26:31;;;;;;;12.85;1.65;;;;;;;6.15;57.96;100388.13;5043768;28;20509;-68
2024/02/06 06:28:56;;;;;;;8.60;1.73;;;;;;;5.53;59.27;100379.50;5070318;28;20036;-68
2024/02/06 06:31:22;;;;;;;11.48;1.58;;;;;;;5.97;58.38;100380.00;5047924;28;20035;-67
2024/02/06 06:33:48;;;;;;;9.27;1.80;;;;;;;5.66;58.90;100374.84;5065037;28;20914;-68
2024/02/06 06:36:14;;;;;;;9.70;1.73;;;;;;;5.93;58.84;100383.59;5031212;28;20039;-68
2024/02/06 06:38:39;;;;;;;9.52;1.70;;;;;;;6.06;58.55;100368.50;5044528;28;20471;-69
2024/02/06 06:41:05;;;;;;;18.55;2.63;;;;;;;5.96;58.48;100373.09;5070635;28;20032;-69
2024/02/06 06:43:30;;;;;;;12.70;1.52;;;;;;;5.86;58.77;100376.88;5063253;28;20028;-67
2024/02/06 06:45:56;;;;;;;7.45;1.90;;;;;;;5.67;59.56;100377.38;5072619;28;20039;-71
2024/02/06 06:48:22;;;;;;;11.60;1.38;;;;;;;5.91;58.57;100364.63;5014131;28;20055;-70
2024/02/06 06:50:48;;;;;;;16.67;1.65;;;;;;;6.02;58.57;100378.13;5030002;28;20112;-71
2024/02/06 06:53:14;;;;;;;16.33;2.05;;;;;;;5.83;59.23;100382.13;5072181;28;20023;-71
2024/02/06 06:55:40;;;;;;;15.20;1.88;;;;;;;5.85;58.61;100372.56;5046645;28;21186;-70
2024/02/06 06:58:05;;;;;;;9.43;1.88;;;;;;;5.93;58.91;100369.78;5055201;28;20035;-69
2024/02/06 07:00:31;;;;;;;16.77;2.35;;;;;;;5.72;59.74;100369.47;5029183;28;20039;-69
2024/02/06 07:02:57;;;;;;;12.98;2.13;;;;;;;5.96;59.02;100369.66;5028801;28;20036;-68
2024/02/06 07:05:23;;;;;;;10.63;2.00;;;;;;;5.81;59.36;100373.53;5020980;28;20287;-71
2024/02/06 07:07:49;;;;;;;6.85;1.60;;;;;;;6.30;58.35;100366.94;5051580;28;20383;-70
2024/02/06 07:10:15;;;;;;;14.60;2.65;;;;;;;5.98;59.26;100366.13;5036661;28;20720;-73
2024/02/06 07:12:41;;;;;;;11.52;1.70;;;;;;;5.94;59.50;100371.47;5037478;28;20800;-71
2024/02/06 07:15:07;;;;;;;7.63;1.48;;;;;;;5.99;59.77;100361.78;5055126;28;20059;-72
2024/02/06 07:17:32;;;;;;;16.35;1.30;;;;;;;6.19;58.84;100353.41;5065355;28;20113;-71
2024/02/06 07:19:58;;;;;;;12.82;1.83;;;;;;;5.90;59.85;100351.69;5039200;28;20509;-74
2024/02/06 07:22:24;;;;;;;6.68;1.13;;;;;;;5.86;60.11;100340.56;5047377;28;20059;-72
2024/02/06 07:24:51;;;;;;;13.00;1.95;;;;;;;5.65;60.91;100350.63;5036913;28;20126;-74
2024/02/06 07:27:17;;;;;;;15.57;1.70;;;;;;;5.64;60.53;100354.13;5067710;28;20027;-73
2024/02/06 07:29:42;;;;;;;15.73;2.72;;;;;;;5.72;60.64;100350.47;5037693;28;20224;-72
2024/02/06 07:32:08;;;;;;;11.82;1.30;;;;;;;5.83;60.62;100346.66;5071425;28;20089;-72
2024/02/06 07:34:33;;;;;;;13.10;1.83;;;;;;;5.92;60.50;100345.56;5059413;28;20050;-70
2024/02/06 07:36:59;;;;;;;11.60;1.73;;;;;;;5.52;61.67;100328.53;5051035;28;20483;-69
2024/02/06 07:39:26;;;;;;;23.45;3.08;;;;;;;5.41;61.79;100344.41;5038539;28;20052;-68
2024/02/06 07:41:52;;;;;;;10.98;2.25;;;;;;;5.59;61.36;100353.41;5054996;28;20314;-69
2024/02/06 07:44:18;;;;;;;6.60;1.30;;;;;;;5.38;61.92;100343.63;5057343;28;20035;-70
2024/02/06 07:46:43;;;;;;;13.48;2.17;;;;;;;5.58;61.04;100349.09;5046846;28;20043;-69
2024/02/06 07:49:09;;;;;;;13.77;1.98;;;;;;;5.75;60.97;100343.47;5059447;28;20074;-70
2024/02/06 07:51:34;;;;;;;19.55;2.83;;;;;;;5.59;61.33;100349.94;5021416;28;20165;-71
2024/02/06 07:54:00;;;;;;;11.43;1.85;;;;;;;6.01;60.52;100349.63;5040052;28;20067;-69
2024/02/06 07:56:30;;;;;;;21.50;2.40;;;;;;;5.88;61.19;100343.94;5041022;28;20024;-70
2024/02/06 07:58:58;;;;;;;13.57;1.90;;;;;;;6.07;60.65;100350.28;5038666;28;20169;-69
2024/02/06 08:01:24;;;;;;;14.65;2.60;;;;;;;5.87;61.73;100345.69;5029898;28;20051;-69
2024/02/06 08:03:50;;;;;;;12.82;2.60;;;;;;;6.11;60.63;100340.69;5047481;28;20162;-70
2024/02/06 08:06:17;;;;;;;17.52;2.08;;;;;;;6.08;61.19;100328.66;5042834;28;20059;-69
2024/02/06 08:08:42;;;;;;;15.05;1.98;;;;;;;6.40;60.25;100333.78;5045940;28;20032;-69
2024/02/06 08:11:08;;;;;;;14.82;2.08;;;;;;;5.84;61.93;100331.97;5076350;28;20086;-71
2024/02/06 08:13:33;;;;;;;11.48;2.08;;;;;;;5.01;64.73;100323.84;5045374;28;20036;-71
2024/02/06 08:15:59;;;;;;;20.50;2.97;;;;;;;5.67;63.26;100325.50;5039900;28;20040;-71
2024/02/06 08:18:24;;;;;;;12.60;2.17;;;;;;;6.18;61.55;100331.81;5067954;28;20032;-69
2024/02/06 08:20:50;;;;;;;9.93;1.75;;;;;;;5.79;62.98;100319.16;5062273;28;20047;-71
2024/02/06 08:23:16;;;;;;;13.68;2.30;;;;;;;5.78;63.51;100314.84;5079423;28;20020;-70
2024/02/06 08:25:42;;;;;;;11.73;1.88;;;;;;;5.54;64.32;100329.34;5041232;28;20664;-71
2024/02/06 08:28:08;;;;;;;14.40;2.40;;;;;;;6.08;62.56;100317.41;5045674;28;20054;-72
2024/02/06 08:30:34;;;;;;;7.78;1.52;;;;;;;5.37;66.08;100318.56;5070642;28;20050;-73
2024/02/06 08:33:00;;;;;;;13.85;1.83;;;;;;;5.28;66.58;100330.06;5073685;28;20490;-66
2024/02/06 08:35:25;;;;;;;15.30;2.40;;;;;;;5.23;66.74;100325.00;5055684;28;20040;-65
2024/02/06 08:37:51;;;;;;;10.60;2.20;;;;;;;5.05;67.47;100325.47;5058102;28;20040;-64
2024/02/06 08:40:16;;;;;;;12.63;2.60;;;;;;;5.32;66.95;100318.69;5025966;28;20147;-66
2024/02/06 08:42:42;;;;;;;9.85;2.42;;;;;;;5.48;66.39;100310.50;5028336;28;20772;-67
2024/02/06 08:45:08;;;;;;;13.02;3.08;;;;;;;5.62;66.00;100305.81;5054760;28;20077;-67
2024/02/06 08:47:34;;;;;;;10.32;2.50;;;;;;;5.08;67.56;100296.91;5034402;28;20102;-67
2024/02/06 08:49:59;;;;;;;21.05;2.72;;;;;;;5.52;66.69;100305.19;5054911;28;21153;-65
2024/02/06 08:52:25;;;;;;;9.60;2.25;;;;;;;5.23;67.26;100296.50;5073452;28;20039;-66
2024/02/06 08:54:51;;;;;;;12.75;2.85;;;;;;;5.21;67.85;100305.19;5028859;28;20047;-66
2024/02/06 08:57:16;;;;;;;16.42;3.30;;;;;;;5.71;66.16;100304.69;5074503;28;20058;-67
2024/02/06 08:59:42;;;;;;;6.47;1.85;;;;;;;5.48;66.97;100288.06;5065290;28;20481;-66
2024/02/06 09:02:08;;;;;;;7.13;1.80;;;;;;;5.38;67.36;100302.16;5056644;28;20107;-67
2024/02/06 09:04:34;;;;;;;8.10;2.38;;;;;;;5.18;67.67;100290.56;5066247;28;20057;-67
2024/02/06 09:07:00;;;;;;;9.93;2.08;;;;;;;5.13;67.79;100282.09;5052624;28;20043;-65
2024/02/06 09:09:25;;;;;;;7.30;1.63;;;;;;;5.41;67.06;100281.31;5056504;28;20035;-67
2024/02/06 09:11:51;;;;;;;14.85;3.33;;;;;;;5.81;65.85;100285.38;5064789;28;20035;-66
2024/02/06 09:14:17;;;;;;;15.77;2.17;;;;;;;5.31;67.63;100272.13;5055705;28;20035;-64
2024/02/06 09:16:42;;;;;;;12.80;2.00;;;;;;;5.52;66.10;100270.66;5066935;28;20027;-66
2024/02/06 09:19:08;;;;;;;11.40;2.53;;;;;;;5.19;67.77;100283.66;5072874;28;20059;-67
2024/02/06 09:21:34;;;;;;;12.75;2.50;;;;;;;5.47;66.69;100260.41;5068234;28;20046;-66
2024/02/06 09:24:00;;;;;;;12.02;3.20;;;;;;;5.41;66.64;100281.31;5048020;28;20039;-66
2024/02/06 09:26:26;;;;;;;9.38;1.27;;;;;;;5.37;66.38;100253.78;5060360;28;20031;-65
2024/02/06 09:28:51;;;;;;;14.38;1.95;;;;;;;5.17;66.34;100247.44;4998885;28;20788;-64
2024/02/06 09:31:17;;;;;;;13.13;1.75;;;;;;;5.74;65.39;100274.31;5033096;28;20024;-65
2024/02/06 09:33:43;;;;;;;10.55;1.40;;;;;;;5.56;65.42;100254.13;5028386;28;20350;-65
2024/02/06 09:36:09;;;;;;;7.82;1.55;;;;;;;5.31;66.36;100272.13;5026568;28;20044;-66
2024/02/06 09:38:35;;;;;;;12.73;2.13;;;;;;;5.54;66.09;100266.28;5011469;28;20250;-65
2024/02/06 09:41:01;;;;;;;14.02;2.28;;;;;;;5.52;65.77;100268.06;5067173;28;20111;-65
2024/02/06 09:43:27;;;;;;;13.13;2.22;;;;;;;5.50;65.73;100257.72;5073132;28;20038;-65
2024/02/06 09:45:54;;;;;;;9.68;1.85;;;;;;;5.79;64.36;100251.72;5063552;28;20051;-65
2024/02/06 09:48:24;;;;;;;10.35;1.83;;;;;;;5.66;65.18;100261.59;5074162;28;20034;-67
2024/02/06 09:50:52;;;;;;;8.95;1.42;;;;;;;5.95;64.25;100259.00;5061310;28;20032;-67
2024/02/06 09:53:18;;;;;;;16.92;2.00;;;;;;;5.90;64.64;100247.94;5056133;28;20083;-66
2024/02/06 09:55:45;;;;;;;9.45;1.13;;;;;;;6.04;63.73;100244.03;5064059;28;20593;-65
2024/02/06 09:58:11;;;;;;;11.00;2.35;;;;;;;5.78;64.77;100249.16;5070733;28;22683;-66
2024/02/06 10:00:39;;;;;;;15.05;1.80;;;;;;;5.92;64.11;100240.97;5061916;28;20039;-65
2024/02/06 10:03:10;;;;;;;14.05;2.17;;;;;;;5.83;64.14;100247.28;5033833;28;21737;-65
2024/02/06 10:05:41;;;;;;;20.25;2.67;;;;;;;5.89;63.87;100244.50;5033822;28;20101;-65
2024/02/06 10:08:08;;;;;;;9.32;1.02;;;;;;;6.05;63.24;100244.88;5051181;28;20059;-66
2024/02/06 10:10:35;;;;;;;7.63;1.23;;;;;;;5.89;63.59;100223.75;5064112;28;20081;-65
2024/02/06 10:13:04;;;;;;;14.13;1.70;;;;;;;6.46;61.79;100238.41;5062022;28;20043;-65
2024/02/06 10:15:30;;;;;;;9.57;1.30;;;;;;;6.20;62.35;100222.78;5045166;28;20040;-68
2024/02/06 10:18:00;;;;;;;15.88;1.60;;;;;;;6.11;63.43;100217.91;5057781;28;20063;-66
2024/02/06 10:20:25;;;;;;;6.25;2.42;;;;;;;6.47;61.33;100221.91;5078087;28;20046;-64
2024/02/06 10:22:51;;;;;;;7.88;1.35;;;;;;;6.33;61.33;100226.72;5066037;28;20039;-65
2024/02/06 10:25:17;;;;;;;10.25;1.40;;;;;;;6.36;61.51;100203.25;5071894;28;20039;-67
2024/02/06 10:27:43;;;;;;;15.20;1.35;;;;;;;6.46;60.94;100222.81;5067553;28;20529;-66
2024/02/06 10:30:10;;;;;;;9.48;1.77;;;;;;;6.61;60.49;100221.44;5067020;28;20498;-67
2024/02/06 10:32:37;;;;;;;9.35;1.70;;;;;;;6.47;61.03;100219.31;5070114;28;20615;-66
2024/02/06 10:35:04;;;;;;;9.98;1.52;;;;;;;6.72;59.94;100208.09;5047339;28;20046;-65
2024/02/06 10:37:35;;;;;;;19.33;2.95;;;;;;;6.59;60.59;100206.81;5048491;28;20028;-65
2024/02/06 10:40:07;;;;;;;10.88;1.58;;;;;;;6.95;59.25;100229.81;5065089;28;20063;-67
2024/02/06 10:42:38;;;;;;;11.60;1.55;;;;;;;6.65;59.62;100211.81;5071713;28;20047;-65
2024/02/06 10:45:04;;;;;;;14.88;3.05;;;;;;;6.13;60.53;100216.06;5066910;28;20043;-65
2024/02/06 10:47:31;;;;;;;17.35;2.08;;;;;;;6.18;60.89;100227.19;5072123;28;20046;-64
2024/02/06 10:50:04;;;;;;;15.43;1.88;;;;;;;6.88;58.89;100201.44;5041928;28;20075;-65
2024/02/06 10:52:30;;;;;;;17.85;2.63;;;;;;;6.69;59.41;100192.63;5062739;28;20055;-64
2024/02/06 10:54:55;;;;;;;14.20;1.23;;;;;;;6.58;59.56;100199.94;5050807;27;20128;-65
2024/02/06 10:57:24;;;;;;;9.55;1.75;;;;;;;6.48;59.16;100196.78;5058002;28;20056;-66
2024/02/06 11:00:02;;;;;;;18.60;1.67;;;;;;;6.72;59.04;100202.91;5050163;28;20043;-66
2024/02/06 11:02:30;;;;;;;7.53;1.67;;;;;;;6.72;59.01;100187.31;5029047;28;20097;-66
2024/02/06 11:05:17;;;;;;;9.48;1.10;;;;;;;6.48;59.47;100204.56;5003378;28;20251;-65
2024/02/06 11:08:06;;;;;;;12.88;2.10;;;;;;;6.69;58.73;100183.09;5029577;28;20882;-65
2024/02/06 11:10:40;;;;;;;8.80;1.70;;;;;;;6.81;58.86;100193.94;5026009;28;20158;-66
2024/02/06 11:13:07;;;;;;;10.68;1.20;;;;;;;6.99;58.59;100189.84;5025881;28;20041;-65
2024/02/06 11:15:42;;;;;;;15.70;1.50;;;;;;;6.59;59.24;100175.66;5048404;28;20075;-66
2024/02/06 11:18:10;;;;;;;10.80;1.75;;;;;;;6.66;59.01;100187.53;5056552;28;21475;-65
2024/02/06 11:20:39;;;;;;;14.50;2.03;;;;;;;7.13;57.63;100182.38;5060026;28;20056;-64
2024/02/06 11:23:07;;;;;;;15.32;2.15;;;;;;;6.65;58.79;100175.47;5073489;28;20608;-65